Airfield :
LOGIN :

Register | Disclaimer

   EN    FR    IT 

 










Legend :    VFR   Marginal VFR   IFR   Intensive IFR   Very Intensive IFR
Visi :
Ceiling :
>= 8 km
>= 3000ft
5 to 8 km
1000 to 3000 ft
1500m to 5 km
500 to 1000 ft
800 to 1500m
200 to 500 ft
< 800m
< 200 ft
Symbols :   Thunderstorms  Fog  Heavy snow  Heavy precipitations  Wind > 20 kt
SIGMETs :     Misc.  Thunderstorms  Icing  Turbulence  Mountain Waves  Volcanic Ashes






- Airport Elevation : 1460 ft


LSMA - Alpnach

CURRENT METAR :
  • 012320Z AUTO 02004G14KT 330V100 ////NDV // FEW006 SCT012 OVC024 02/02 Q1015 RMK MIS

EXPIRED METARs :
  • 012250Z AUTO 17002KT ////NDV // FEW010 OVC021 02/01 Q1015 RMK MIS
  • 012220Z AUTO VRB01KT ////NDV // SCT008 BKN013 OVC018 02/01 Q1016 RMK MIS
  • 012150Z AUTO VRB02KT ////NDV // SCT006 OVC009 02/01 Q1016 RMK MIS
  • 012120Z AUTO 00000KT ////NDV // BKN009 BKN011 OVC014 02/01 Q1016 RMK MIS
  • 012050Z AUTO 17002KT ////NDV // FEW007 BKN009 OVC018 02/01 Q1016 RMK MIS

Expired Forecast.



MET'MAP, your aeronautical weather chart ! - Copyright ORBIFLY December 2007 - Disclaimer

ORBIFLY MET'MAP TEAM :

Programming & Development : Alexandra Zaïnal
Concept & original design : Baudouin d'Aumeries
Assistance for programming : Marc-Olivier Méhu
Technical & hardware support : Manuel Goepfert

Contact : metmap@orbifly.com




SOURCES & CREDITS :

   NOAA